sensor_id;sensor_type;location;lat;lon;timestamp;P1;durP1;ratioP1;P2;durP2;ratioP2
18019;SDS011;9135;48.362;10.878;2022-08-03T00:01:39;1.00;;;1.00;;
18019;SDS011;9135;48.362;10.878;2022-08-03T00:04:05;1.95;;;1.42;;
18019;SDS011;9135;48.362;10.878;2022-08-03T00:06:32;1.15;;;1.15;;
18019;SDS011;9135;48.362;10.878;2022-08-03T00:08:58;2.63;;;1.27;;
18019;SDS011;9135;48.362;10.878;2022-08-03T00:11:24;1.60;;;1.50;;
18019;SDS011;9135;48.362;10.878;2022-08-03T00:13:50;1.48;;;1.38;;
18019;SDS011;9135;48.362;10.878;2022-08-03T00:16:16;1.45;;;1.35;;
18019;SDS011;9135;48.362;10.878;2022-08-03T00:18:42;1.55;;;1.30;;
18019;SDS011;9135;48.362;10.878;2022-08-03T00:21:09;1.75;;;1.65;;
18019;SDS011;9135;48.362;10.878;2022-08-03T00:23:35;1.42;;;1.42;;
18019;SDS011;9135;48.362;10.878;2022-08-03T00:26:01;1.25;;;1.25;;
18019;SDS011;9135;48.362;10.878;2022-08-03T00:28:27;1.40;;;1.30;;
18019;SDS011;9135;48.362;10.878;2022-08-03T00:30:53;1.45;;;1.35;;
18019;SDS011;9135;48.362;10.878;2022-08-03T00:33:20;1.40;;;1.30;;
18019;SDS011;9135;48.362;10.878;2022-08-03T00:35:46;1.38;;;1.38;;
18019;SDS011;9135;48.362;10.878;2022-08-03T00:38:12;2.95;;;1.52;;
18019;SDS011;9135;48.362;10.878;2022-08-03T00:40:38;1.60;;;1.50;;
18019;SDS011;9135;48.362;10.878;2022-08-03T00:43:05;1.80;;;1.70;;
18019;SDS011;9135;48.362;10.878;2022-08-03T00:45:33;1.40;;;1.40;;
18019;SDS011;9135;48.362;10.878;2022-08-03T00:47:59;1.25;;;1.25;;
18019;SDS011;9135;48.362;10.878;2022-08-03T00:50:26;2.55;;;1.48;;
18019;SDS011;9135;48.362;10.878;2022-08-03T00:52:54;1.75;;;1.65;;
18019;SDS011;9135;48.362;10.878;2022-08-03T00:55:20;1.90;;;1.30;;
18019;SDS011;9135;48.362;10.878;2022-08-03T00:57:46;1.55;;;1.25;;
18019;SDS011;9135;48.362;10.878;2022-08-03T01:00:17;2.75;;;1.92;;
18019;SDS011;9135;48.362;10.878;2022-08-03T01:02:43;1.50;;;1.40;;
18019;SDS011;9135;48.362;10.878;2022-08-03T01:05:09;0.98;;;0.98;;
18019;SDS011;9135;48.362;10.878;2022-08-03T01:10:16;1.38;;;1.35;;
18019;SDS011;9135;48.362;10.878;2022-08-03T01:12:46;4.78;;;1.83;;
18019;SDS011;9135;48.362;10.878;2022-08-03T01:17:45;1.60;;;1.60;;
18019;SDS011;9135;48.362;10.878;2022-08-03T01:20:14;1.92;;;1.50;;
18019;SDS011;9135;48.362;10.878;2022-08-03T01:25:34;1.48;;;1.38;;
18019;SDS011;9135;48.362;10.878;2022-08-03T01:30:49;1.65;;;1.55;;
18019;SDS011;9135;48.362;10.878;2022-08-03T01:33:18;1.60;;;1.35;;
18019;SDS011;9135;48.362;10.878;2022-08-03T01:35:50;1.17;;;1.17;;
18019;SDS011;9135;48.362;10.878;2022-08-03T01:38:21;1.38;;;1.27;;
18019;SDS011;9135;48.362;10.878;2022-08-03T01:40:48;2.30;;;1.60;;
18019;SDS011;9135;48.362;10.878;2022-08-03T01:43:16;7.78;;;1.95;;
18019;SDS011;9135;48.362;10.878;2022-08-03T01:45:44;1.50;;;1.48;;
18019;SDS011;9135;48.362;10.878;2022-08-03T01:48:11;1.73;;;1.55;;
18019;SDS011;9135;48.362;10.878;2022-08-03T01:50:40;1.90;;;1.75;;
18019;SDS011;9135;48.362;10.878;2022-08-03T01:53:07;1.42;;;1.42;;
18019;SDS011;9135;48.362;10.878;2022-08-03T01:55:33;1.65;;;1.55;;
18019;SDS011;9135;48.362;10.878;2022-08-03T01:58:01;1.52;;;1.38;;
18019;SDS011;9135;48.362;10.878;2022-08-03T02:00:28;1.70;;;1.60;;
18019;SDS011;9135;48.362;10.878;2022-08-03T02:02:55;1.60;;;1.50;;
18019;SDS011;9135;48.362;10.878;2022-08-03T02:05:28;2.28;;;1.85;;
18019;SDS011;9135;48.362;10.878;2022-08-03T02:07:55;1.27;;;1.27;;
18019;SDS011;9135;48.362;10.878;2022-08-03T02:10:21;5.03;;;1.45;;
18019;SDS011;9135;48.362;10.878;2022-08-03T02:12:48;1.25;;;1.25;;
18019;SDS011;9135;48.362;10.878;2022-08-03T02:15:15;1.60;;;1.50;;
18019;SDS011;9135;48.362;10.878;2022-08-03T02:17:41;2.20;;;2.08;;
18019;SDS011;9135;48.362;10.878;2022-08-03T02:20:10;1.58;;;1.58;;
18019;SDS011;9135;48.362;10.878;2022-08-03T02:22:39;1.50;;;1.40;;
18019;SDS011;9135;48.362;10.878;2022-08-03T02:25:09;1.83;;;1.70;;
18019;SDS011;9135;48.362;10.878;2022-08-03T02:27:37;1.80;;;1.65;;
18019;SDS011;9135;48.362;10.878;2022-08-03T02:30:04;1.15;;;1.10;;
18019;SDS011;9135;48.362;10.878;2022-08-03T02:32:33;1.98;;;1.88;;
18019;SDS011;9135;48.362;10.878;2022-08-03T02:35:01;1.80;;;1.63;;
18019;SDS011;9135;48.362;10.878;2022-08-03T02:37:30;1.85;;;1.75;;
18019;SDS011;9135;48.362;10.878;2022-08-03T02:39:58;1.75;;;1.50;;
18019;SDS011;9135;48.362;10.878;2022-08-03T02:42:26;2.22;;;1.90;;
18019;SDS011;9135;48.362;10.878;2022-08-03T02:44:54;2.33;;;1.15;;
18019;SDS011;9135;48.362;10.878;2022-08-03T02:47:21;1.63;;;1.52;;
18019;SDS011;9135;48.362;10.878;2022-08-03T02:49:47;2.38;;;1.63;;
18019;SDS011;9135;48.362;10.878;2022-08-03T02:52:14;1.60;;;1.50;;
18019;SDS011;9135;48.362;10.878;2022-08-03T02:54:42;1.88;;;1.73;;
18019;SDS011;9135;48.362;10.878;2022-08-03T02:57:08;1.92;;;1.83;;
18019;SDS011;9135;48.362;10.878;2022-08-03T02:59:36;1.98;;;1.50;;
18019;SDS011;9135;48.362;10.878;2022-08-03T03:02:02;1.60;;;1.50;;
18019;SDS011;9135;48.362;10.878;2022-08-03T03:04:28;4.28;;;1.75;;
18019;SDS011;9135;48.362;10.878;2022-08-03T03:06:55;1.65;;;1.55;;
18019;SDS011;9135;48.362;10.878;2022-08-03T03:09:22;1.35;;;1.35;;
18019;SDS011;9135;48.362;10.878;2022-08-03T03:11:48;1.58;;;1.48;;
18019;SDS011;9135;48.362;10.878;2022-08-03T03:14:15;2.00;;;1.80;;
18019;SDS011;9135;48.362;10.878;2022-08-03T03:16:42;1.80;;;1.65;;
18019;SDS011;9135;48.362;10.878;2022-08-03T03:19:09;2.03;;;1.90;;
18019;SDS011;9135;48.362;10.878;2022-08-03T03:21:36;1.20;;;1.20;;
18019;SDS011;9135;48.362;10.878;2022-08-03T03:24:02;1.42;;;1.33;;
18019;SDS011;9135;48.362;10.878;2022-08-03T03:26:29;1.60;;;1.27;;
18019;SDS011;9135;48.362;10.878;2022-08-03T03:28:55;1.25;;;1.23;;
18019;SDS011;9135;48.362;10.878;2022-08-03T03:31:22;1.30;;;1.27;;
18019;SDS011;9135;48.362;10.878;2022-08-03T03:33:48;1.98;;;1.63;;
18019;SDS011;9135;48.362;10.878;2022-08-03T03:36:14;1.70;;;1.60;;
18019;SDS011;9135;48.362;10.878;2022-08-03T03:38:42;1.67;;;1.58;;
18019;SDS011;9135;48.362;10.878;2022-08-03T03:41:08;2.08;;;1.67;;
18019;SDS011;9135;48.362;10.878;2022-08-03T03:43:34;1.40;;;1.33;;
18019;SDS011;9135;48.362;10.878;2022-08-03T03:46:01;1.52;;;1.42;;
18019;SDS011;9135;48.362;10.878;2022-08-03T03:48:27;1.40;;;1.40;;
18019;SDS011;9135;48.362;10.878;2022-08-03T03:50:53;8.52;;;1.90;;
18019;SDS011;9135;48.362;10.878;2022-08-03T03:53:21;1.27;;;1.23;;
18019;SDS011;9135;48.362;10.878;2022-08-03T03:55:47;10.15;;;1.83;;
18019;SDS011;9135;48.362;10.878;2022-08-03T03:58:13;1.35;;;1.27;;
18019;SDS011;9135;48.362;10.878;2022-08-03T04:00:39;1.45;;;1.35;;
18019;SDS011;9135;48.362;10.878;2022-08-03T04:03:06;1.40;;;1.30;;
18019;SDS011;9135;48.362;10.878;2022-08-03T04:05:32;2.97;;;1.50;;
18019;SDS011;9135;48.362;10.878;2022-08-03T04:08:17;3.50;;;1.20;;
18019;SDS011;9135;48.362;10.878;2022-08-03T04:11:13;1.10;;;1.10;;
18019;SDS011;9135;48.362;10.878;2022-08-03T04:13:41;1.35;;;1.17;;
18019;SDS011;9135;48.362;10.878;2022-08-03T04:16:09;2.22;;;1.83;;
18019;SDS011;9135;48.362;10.878;2022-08-03T04:18:37;2.47;;;1.70;;
18019;SDS011;9135;48.362;10.878;2022-08-03T04:21:05;1.33;;;1.25;;
18019;SDS011;9135;48.362;10.878;2022-08-03T04:23:34;6.97;;;1.65;;
18019;SDS011;9135;48.362;10.878;2022-08-03T04:26:01;1.55;;;1.45;;
18019;SDS011;9135;48.362;10.878;2022-08-03T04:28:27;1.55;;;1.45;;
18019;SDS011;9135;48.362;10.878;2022-08-03T04:30:54;1.38;;;1.30;;
18019;SDS011;9135;48.362;10.878;2022-08-03T04:33:21;1.45;;;1.45;;
18019;SDS011;9135;48.362;10.878;2022-08-03T04:35:48;1.65;;;1.50;;
18019;SDS011;9135;48.362;10.878;2022-08-03T04:38:15;1.55;;;1.45;;
18019;SDS011;9135;48.362;10.878;2022-08-03T04:40:43;1.60;;;1.50;;
18019;SDS011;9135;48.362;10.878;2022-08-03T04:43:10;1.88;;;1.77;;
18019;SDS011;9135;48.362;10.878;2022-08-03T04:45:38;2.15;;;1.95;;
18019;SDS011;9135;48.362;10.878;2022-08-03T04:48:04;2.60;;;1.98;;
18019;SDS011;9135;48.362;10.878;2022-08-03T04:50:30;1.67;;;1.52;;
18019;SDS011;9135;48.362;10.878;2022-08-03T04:52:56;2.05;;;1.23;;
18019;SDS011;9135;48.362;10.878;2022-08-03T04:55:26;1.70;;;1.52;;
18019;SDS011;9135;48.362;10.878;2022-08-03T04:57:52;3.92;;;2.10;;
18019;SDS011;9135;48.362;10.878;2022-08-03T05:00:18;2.25;;;2.15;;
18019;SDS011;9135;48.362;10.878;2022-08-03T05:02:44;1.77;;;1.67;;
18019;SDS011;9135;48.362;10.878;2022-08-03T05:05:10;3.05;;;2.38;;
18019;SDS011;9135;48.362;10.878;2022-08-03T05:07:37;1.50;;;1.40;;
18019;SDS011;9135;48.362;10.878;2022-08-03T05:10:06;3.00;;;1.45;;
18019;SDS011;9135;48.362;10.878;2022-08-03T05:12:33;1.42;;;1.33;;
18019;SDS011;9135;48.362;10.878;2022-08-03T05:14:59;1.95;;;1.63;;
18019;SDS011;9135;48.362;10.878;2022-08-03T05:17:25;1.45;;;1.45;;
18019;SDS011;9135;48.362;10.878;2022-08-03T05:19:52;1.85;;;1.75;;
18019;SDS011;9135;48.362;10.878;2022-08-03T05:22:18;2.10;;;1.85;;
18019;SDS011;9135;48.362;10.878;2022-08-03T05:24:44;1.63;;;1.52;;
18019;SDS011;9135;48.362;10.878;2022-08-03T05:27:10;2.33;;;2.13;;
18019;SDS011;9135;48.362;10.878;2022-08-03T05:29:43;1.40;;;1.40;;
18019;SDS011;9135;48.362;10.878;2022-08-03T05:32:09;1.27;;;1.17;;
18019;SDS011;9135;48.362;10.878;2022-08-03T05:34:35;2.50;;;1.33;;
18019;SDS011;9135;48.362;10.878;2022-08-03T05:37:01;1.30;;;1.20;;
18019;SDS011;9135;48.362;10.878;2022-08-03T05:39:27;1.75;;;1.60;;
18019;SDS011;9135;48.362;10.878;2022-08-03T05:41:53;2.10;;;1.60;;
18019;SDS011;9135;48.362;10.878;2022-08-03T05:44:19;1.48;;;1.48;;
18019;SDS011;9135;48.362;10.878;2022-08-03T05:46:45;2.08;;;1.48;;
18019;SDS011;9135;48.362;10.878;2022-08-03T05:49:11;1.85;;;1.73;;
18019;SDS011;9135;48.362;10.878;2022-08-03T05:51:37;3.55;;;2.00;;
18019;SDS011;9135;48.362;10.878;2022-08-03T05:54:03;1.42;;;1.33;;
18019;SDS011;9135;48.362;10.878;2022-08-03T05:56:29;2.42;;;1.58;;
18019;SDS011;9135;48.362;10.878;2022-08-03T05:58:55;1.95;;;1.73;;
18019;SDS011;9135;48.362;10.878;2022-08-03T06:01:21;1.73;;;1.63;;
18019;SDS011;9135;48.362;10.878;2022-08-03T06:03:48;1.70;;;1.60;;
18019;SDS011;9135;48.362;10.878;2022-08-03T06:06:14;1.80;;;1.70;;
18019;SDS011;9135;48.362;10.878;2022-08-03T06:08:41;1.05;;;1.05;;
18019;SDS011;9135;48.362;10.878;2022-08-03T06:11:07;1.63;;;1.52;;
18019;SDS011;9135;48.362;10.878;2022-08-03T06:13:33;1.88;;;1.70;;
18019;SDS011;9135;48.362;10.878;2022-08-03T06:16:00;1.85;;;1.33;;
18019;SDS011;9135;48.362;10.878;2022-08-03T06:18:26;1.08;;;1.08;;
18019;SDS011;9135;48.362;10.878;2022-08-03T06:20:52;1.50;;;1.40;;
18019;SDS011;9135;48.362;10.878;2022-08-03T06:23:18;2.13;;;1.98;;
18019;SDS011;9135;48.362;10.878;2022-08-03T06:25:44;1.50;;;1.40;;
18019;SDS011;9135;48.362;10.878;2022-08-03T06:28:10;1.83;;;1.50;;
18019;SDS011;9135;48.362;10.878;2022-08-03T06:30:38;1.35;;;1.27;;
18019;SDS011;9135;48.362;10.878;2022-08-03T06:33:04;1.35;;;1.25;;
18019;SDS011;9135;48.362;10.878;2022-08-03T06:35:30;2.20;;;2.03;;
18019;SDS011;9135;48.362;10.878;2022-08-03T06:37:55;2.22;;;1.70;;
18019;SDS011;9135;48.362;10.878;2022-08-03T06:40:21;1.80;;;1.70;;
18019;SDS011;9135;48.362;10.878;2022-08-03T06:42:55;2.17;;;2.00;;
18019;SDS011;9135;48.362;10.878;2022-08-03T06:45:26;3.55;;;2.00;;
18019;SDS011;9135;48.362;10.878;2022-08-03T06:48:08;1.83;;;1.42;;
18019;SDS011;9135;48.362;10.878;2022-08-03T06:50:35;1.25;;;1.25;;
18019;SDS011;9135;48.362;10.878;2022-08-03T06:53:02;1.15;;;1.15;;
18019;SDS011;9135;48.362;10.878;2022-08-03T06:55:29;1.10;;;1.10;;
18019;SDS011;9135;48.362;10.878;2022-08-03T06:57:55;2.28;;;1.42;;
18019;SDS011;9135;48.362;10.878;2022-08-03T07:00:21;0.90;;;0.90;;
18019;SDS011;9135;48.362;10.878;2022-08-03T07:02:47;1.50;;;1.38;;
18019;SDS011;9135;48.362;10.878;2022-08-03T07:05:13;1.98;;;1.40;;
18019;SDS011;9135;48.362;10.878;2022-08-03T07:07:39;0.90;;;0.88;;
18019;SDS011;9135;48.362;10.878;2022-08-03T07:10:05;1.98;;;1.70;;
18019;SDS011;9135;48.362;10.878;2022-08-03T07:12:31;6.88;;;5.57;;
18019;SDS011;9135;48.362;10.878;2022-08-03T07:14:58;2.45;;;1.65;;
18019;SDS011;9135;48.362;10.878;2022-08-03T07:17:24;1.40;;;1.30;;
18019;SDS011;9135;48.362;10.878;2022-08-03T07:19:50;1.20;;;1.20;;
18019;SDS011;9135;48.362;10.878;2022-08-03T07:22:16;1.00;;;1.00;;
18019;SDS011;9135;48.362;10.878;2022-08-03T07:24:41;1.25;;;1.25;;
18019;SDS011;9135;48.362;10.878;2022-08-03T07:27:07;0.85;;;0.85;;
18019;SDS011;9135;48.362;10.878;2022-08-03T07:29:34;1.05;;;1.00;;
18019;SDS011;9135;48.362;10.878;2022-08-03T07:32:00;1.10;;;1.00;;
18019;SDS011;9135;48.362;10.878;2022-08-03T07:34:26;1.17;;;1.08;;
18019;SDS011;9135;48.362;10.878;2022-08-03T07:36:52;0.98;;;0.98;;
18019;SDS011;9135;48.362;10.878;2022-08-03T07:39:18;1.25;;;1.10;;
18019;SDS011;9135;48.362;10.878;2022-08-03T07:41:43;0.93;;;0.90;;
18019;SDS011;9135;48.362;10.878;2022-08-03T07:44:10;1.23;;;1.20;;
18019;SDS011;9135;48.362;10.878;2022-08-03T07:46:35;0.88;;;0.88;;
18019;SDS011;9135;48.362;10.878;2022-08-03T07:49:01;1.60;;;0.98;;
18019;SDS011;9135;48.362;10.878;2022-08-03T07:51:27;0.73;;;0.73;;
18019;SDS011;9135;48.362;10.878;2022-08-03T07:53:52;1.50;;;1.00;;
18019;SDS011;9135;48.362;10.878;2022-08-03T07:56:21;0.90;;;0.90;;
18019;SDS011;9135;48.362;10.878;2022-08-03T07:58:48;1.77;;;0.75;;
18019;SDS011;9135;48.362;10.878;2022-08-03T08:01:14;1.27;;;1.17;;
18019;SDS011;9135;48.362;10.878;2022-08-03T08:03:41;0.90;;;0.90;;
18019;SDS011;9135;48.362;10.878;2022-08-03T08:06:06;1.05;;;1.05;;
18019;SDS011;9135;48.362;10.878;2022-08-03T08:08:32;0.70;;;0.68;;
18019;SDS011;9135;48.362;10.878;2022-08-03T08:10:58;1.02;;;0.93;;
18019;SDS011;9135;48.362;10.878;2022-08-03T08:13:23;0.85;;;0.85;;
18019;SDS011;9135;48.362;10.878;2022-08-03T08:15:49;0.88;;;0.88;;
18019;SDS011;9135;48.362;10.878;2022-08-03T08:18:17;0.90;;;0.85;;
18019;SDS011;9135;48.362;10.878;2022-08-03T08:20:43;1.10;;;1.00;;
18019;SDS011;9135;48.362;10.878;2022-08-03T08:23:08;1.10;;;1.10;;
18019;SDS011;9135;48.362;10.878;2022-08-03T08:25:34;0.93;;;0.90;;
18019;SDS011;9135;48.362;10.878;2022-08-03T08:28:00;0.80;;;0.80;;
18019;SDS011;9135;48.362;10.878;2022-08-03T08:30:27;0.90;;;0.90;;
18019;SDS011;9135;48.362;10.878;2022-08-03T08:32:53;1.00;;;0.77;;
18019;SDS011;9135;48.362;10.878;2022-08-03T08:35:18;1.80;;;0.77;;
18019;SDS011;9135;48.362;10.878;2022-08-03T08:37:44;0.82;;;0.82;;
18019;SDS011;9135;48.362;10.878;2022-08-03T08:40:10;0.95;;;0.90;;
18019;SDS011;9135;48.362;10.878;2022-08-03T08:42:38;0.47;;;0.47;;
18019;SDS011;9135;48.362;10.878;2022-08-03T08:45:04;0.55;;;0.55;;
18019;SDS011;9135;48.362;10.878;2022-08-03T08:47:32;0.73;;;0.73;;
18019;SDS011;9135;48.362;10.878;2022-08-03T08:50:01;0.63;;;0.63;;
18019;SDS011;9135;48.362;10.878;2022-08-03T08:52:27;0.60;;;0.60;;
18019;SDS011;9135;48.362;10.878;2022-08-03T08:54:54;0.50;;;0.50;;
18019;SDS011;9135;48.362;10.878;2022-08-03T08:57:27;0.60;;;0.60;;
18019;SDS011;9135;48.362;10.878;2022-08-03T08:59:55;0.75;;;0.60;;
18019;SDS011;9135;48.362;10.878;2022-08-03T09:02:24;0.80;;;0.80;;
18019;SDS011;9135;48.362;10.878;2022-08-03T09:04:50;0.82;;;0.73;;
18019;SDS011;9135;48.362;10.878;2022-08-03T09:07:17;0.40;;;0.40;;
18019;SDS011;9135;48.362;10.878;2022-08-03T09:09:42;0.90;;;0.70;;
18019;SDS011;9135;48.362;10.878;2022-08-03T09:12:08;0.95;;;0.75;;
18019;SDS011;9135;48.362;10.878;2022-08-03T09:14:34;0.70;;;0.70;;
18019;SDS011;9135;48.362;10.878;2022-08-03T09:17:00;0.50;;;0.50;;
18019;SDS011;9135;48.362;10.878;2022-08-03T09:19:28;0.45;;;0.45;;
18019;SDS011;9135;48.362;10.878;2022-08-03T09:22:16;0.50;;;0.50;;
18019;SDS011;9135;48.362;10.878;2022-08-03T09:24:58;0.50;;;0.50;;
18019;SDS011;9135;48.362;10.878;2022-08-03T09:27:27;0.70;;;0.70;;
18019;SDS011;9135;48.362;10.878;2022-08-03T09:29:53;0.52;;;0.50;;
18019;SDS011;9135;48.362;10.878;2022-08-03T09:32:22;0.73;;;0.73;;
18019;SDS011;9135;48.362;10.878;2022-08-03T09:34:51;0.60;;;0.60;;
18019;SDS011;9135;48.362;10.878;2022-08-03T09:37:17;0.50;;;0.50;;
18019;SDS011;9135;48.362;10.878;2022-08-03T09:39:45;0.52;;;0.50;;
18019;SDS011;9135;48.362;10.878;2022-08-03T09:42:15;0.50;;;0.50;;
18019;SDS011;9135;48.362;10.878;2022-08-03T09:44:46;0.68;;;0.68;;
18019;SDS011;9135;48.362;10.878;2022-08-03T09:47:14;0.50;;;0.50;;
18019;SDS011;9135;48.362;10.878;2022-08-03T09:49:41;0.50;;;0.50;;
18019;SDS011;9135;48.362;10.878;2022-08-03T09:52:19;0.30;;;0.30;;
18019;SDS011;9135;48.362;10.878;2022-08-03T09:54:50;0.63;;;0.63;;
18019;SDS011;9135;48.362;10.878;2022-08-03T09:57:23;0.57;;;0.57;;
18019;SDS011;9135;48.362;10.878;2022-08-03T09:59:50;1.70;;;0.60;;
18019;SDS011;9135;48.362;10.878;2022-08-03T10:02:23;0.55;;;0.55;;
18019;SDS011;9135;48.362;10.878;2022-08-03T10:04:51;0.52;;;0.52;;
18019;SDS011;9135;48.362;10.878;2022-08-03T10:07:21;0.50;;;0.50;;
18019;SDS011;9135;48.362;10.878;2022-08-03T10:09:52;0.60;;;0.60;;
18019;SDS011;9135;48.362;10.878;2022-08-03T10:12:23;0.60;;;0.43;;
18019;SDS011;9135;48.362;10.878;2022-08-03T10:14:49;0.40;;;0.40;;
18019;SDS011;9135;48.362;10.878;2022-08-03T10:17:16;0.20;;;0.20;;
18019;SDS011;9135;48.362;10.878;2022-08-03T10:19:42;0.38;;;0.38;;
18019;SDS011;9135;48.362;10.878;2022-08-03T10:22:12;0.50;;;0.50;;
18019;SDS011;9135;48.362;10.878;2022-08-03T10:24:39;0.60;;;0.60;;
18019;SDS011;9135;48.362;10.878;2022-08-03T10:27:13;0.57;;;0.57;;
18019;SDS011;9135;48.362;10.878;2022-08-03T10:29:42;0.52;;;0.50;;
18019;SDS011;9135;48.362;10.878;2022-08-03T10:32:17;0.52;;;0.50;;
18019;SDS011;9135;48.362;10.878;2022-08-03T10:34:48;0.50;;;0.50;;
18019;SDS011;9135;48.362;10.878;2022-08-03T10:37:16;0.60;;;0.60;;
18019;SDS011;9135;48.362;10.878;2022-08-03T10:39:43;0.40;;;0.40;;
18019;SDS011;9135;48.362;10.878;2022-08-03T10:42:18;0.57;;;0.57;;
18019;SDS011;9135;48.362;10.878;2022-08-03T10:44:47;0.43;;;0.43;;
18019;SDS011;9135;48.362;10.878;2022-08-03T10:47:16;0.73;;;0.40;;
18019;SDS011;9135;48.362;10.878;2022-08-03T10:49:43;1.42;;;0.60;;
18019;SDS011;9135;48.362;10.878;2022-08-03T10:52:10;0.40;;;0.40;;
18019;SDS011;9135;48.362;10.878;2022-08-03T10:54:37;0.57;;;0.57;;
18019;SDS011;9135;48.362;10.878;2022-08-03T11:00:15;1.38;;;1.02;;
18019;SDS011;9135;48.362;10.878;2022-08-03T11:03:01;0.50;;;0.50;;
18019;SDS011;9135;48.362;10.878;2022-08-03T11:05:35;0.70;;;0.70;;
18019;SDS011;9135;48.362;10.878;2022-08-03T11:10:50;0.50;;;0.50;;
18019;SDS011;9135;48.362;10.878;2022-08-03T11:13:18;0.43;;;0.43;;
18019;SDS011;9135;48.362;10.878;2022-08-03T11:15:46;0.80;;;0.80;;
18019;SDS011;9135;48.362;10.878;2022-08-03T11:18:14;1.58;;;0.68;;
18019;SDS011;9135;48.362;10.878;2022-08-03T11:20:50;0.40;;;0.40;;
18019;SDS011;9135;48.362;10.878;2022-08-03T11:23:39;0.77;;;0.50;;
18019;SDS011;9135;48.362;10.878;2022-08-03T11:26:25;0.90;;;0.60;;
18019;SDS011;9135;48.362;10.878;2022-08-03T11:28:51;1.17;;;0.43;;
18019;SDS011;9135;48.362;10.878;2022-08-03T11:34:04;0.40;;;0.40;;
18019;SDS011;9135;48.362;10.878;2022-08-03T11:39:40;0.47;;;0.47;;
18019;SDS011;9135;48.362;10.878;2022-08-03T11:44:49;0.40;;;0.40;;
18019;SDS011;9135;48.362;10.878;2022-08-03T11:47:15;0.40;;;0.40;;
18019;SDS011;9135;48.362;10.878;2022-08-03T11:49:42;0.43;;;0.43;;
18019;SDS011;9135;48.362;10.878;2022-08-03T11:52:11;0.85;;;0.68;;
18019;SDS011;9135;48.362;10.878;2022-08-03T11:54:37;0.30;;;0.30;;
18019;SDS011;9135;48.362;10.878;2022-08-03T11:57:04;0.50;;;0.43;;
18019;SDS011;9135;48.362;10.878;2022-08-03T11:59:34;0.40;;;0.40;;
18019;SDS011;9135;48.362;10.878;2022-08-03T12:02:11;0.40;;;0.40;;
18019;SDS011;9135;48.362;10.878;2022-08-03T12:07:18;0.60;;;0.60;;
18019;SDS011;9135;48.362;10.878;2022-08-03T12:12:29;0.70;;;0.70;;
18019;SDS011;9135;48.362;10.878;2022-08-03T12:14:55;0.73;;;0.73;;
18019;SDS011;9135;48.362;10.878;2022-08-03T12:17:22;2.05;;;1.00;;
18019;SDS011;9135;48.362;10.878;2022-08-03T12:19:48;0.60;;;0.60;;
18019;SDS011;9135;48.362;10.878;2022-08-03T12:22:14;0.32;;;0.32;;
18019;SDS011;9135;48.362;10.878;2022-08-03T12:24:41;0.40;;;0.40;;
18019;SDS011;9135;48.362;10.878;2022-08-03T12:27:07;0.82;;;0.77;;
18019;SDS011;9135;48.362;10.878;2022-08-03T12:29:33;0.52;;;0.50;;
18019;SDS011;9135;48.362;10.878;2022-08-03T12:31:59;0.40;;;0.40;;
18019;SDS011;9135;48.362;10.878;2022-08-03T12:34:43;0.30;;;0.30;;
18019;SDS011;9135;48.362;10.878;2022-08-03T12:37:10;0.90;;;0.82;;
18019;SDS011;9135;48.362;10.878;2022-08-03T12:39:36;0.85;;;0.68;;
18019;SDS011;9135;48.362;10.878;2022-08-03T12:42:01;1.20;;;0.50;;
18019;SDS011;9135;48.362;10.878;2022-08-03T12:44:30;0.50;;;0.43;;
18019;SDS011;9135;48.362;10.878;2022-08-03T12:46:58;0.45;;;0.45;;
18019;SDS011;9135;48.362;10.878;2022-08-03T12:49:25;0.30;;;0.30;;
18019;SDS011;9135;48.362;10.878;2022-08-03T12:54:17;0.50;;;0.50;;
18019;SDS011;9135;48.362;10.878;2022-08-03T12:56:57;0.52;;;0.52;;
18019;SDS011;9135;48.362;10.878;2022-08-03T12:59:33;0.47;;;0.47;;
18019;SDS011;9135;48.362;10.878;2022-08-03T13:02:01;0.45;;;0.45;;
18019;SDS011;9135;48.362;10.878;2022-08-03T13:06:56;0.57;;;0.50;;
18019;SDS011;9135;48.362;10.878;2022-08-03T13:09:26;0.98;;;0.68;;
18019;SDS011;9135;48.362;10.878;2022-08-03T13:12:03;0.52;;;0.52;;
18019;SDS011;9135;48.362;10.878;2022-08-03T13:14:33;0.57;;;0.57;;
18019;SDS011;9135;48.362;10.878;2022-08-03T13:16:58;0.68;;;0.55;;
18019;SDS011;9135;48.362;10.878;2022-08-03T13:19:24;0.40;;;0.40;;
18019;SDS011;9135;48.362;10.878;2022-08-03T13:21:50;2.83;;;0.77;;
18019;SDS011;9135;48.362;10.878;2022-08-03T13:24:16;0.30;;;0.30;;
18019;SDS011;9135;48.362;10.878;2022-08-03T13:26:42;0.47;;;0.47;;
18019;SDS011;9135;48.362;10.878;2022-08-03T13:29:07;0.68;;;0.68;;
18019;SDS011;9135;48.362;10.878;2022-08-03T13:31:33;0.77;;;0.68;;
18019;SDS011;9135;48.362;10.878;2022-08-03T13:33:59;0.52;;;0.52;;
18019;SDS011;9135;48.362;10.878;2022-08-03T13:36:24;0.35;;;0.35;;
18019;SDS011;9135;48.362;10.878;2022-08-03T13:38:50;0.40;;;0.38;;
18019;SDS011;9135;48.362;10.878;2022-08-03T13:41:15;0.40;;;0.40;;
18019;SDS011;9135;48.362;10.878;2022-08-03T13:43:41;2.38;;;1.13;;
18019;SDS011;9135;48.362;10.878;2022-08-03T13:46:06;1.65;;;1.45;;
18019;SDS011;9135;48.362;10.878;2022-08-03T13:48:32;0.80;;;0.70;;
18019;SDS011;9135;48.362;10.878;2022-08-03T13:50:58;0.75;;;0.75;;
18019;SDS011;9135;48.362;10.878;2022-08-03T13:53:23;0.75;;;0.52;;
18019;SDS011;9135;48.362;10.878;2022-08-03T13:55:49;0.20;;;0.20;;
18019;SDS011;9135;48.362;10.878;2022-08-03T13:58:14;0.50;;;0.50;;
18019;SDS011;9135;48.362;10.878;2022-08-03T14:00:40;0.40;;;0.40;;
18019;SDS011;9135;48.362;10.878;2022-08-03T14:03:06;0.32;;;0.32;;
18019;SDS011;9135;48.362;10.878;2022-08-03T14:05:32;0.82;;;0.75;;
18019;SDS011;9135;48.362;10.878;2022-08-03T14:07:59;1.50;;;1.00;;
18019;SDS011;9135;48.362;10.878;2022-08-03T14:10:25;0.77;;;0.68;;
18019;SDS011;9135;48.362;10.878;2022-08-03T14:12:51;2.20;;;1.15;;
18019;SDS011;9135;48.362;10.878;2022-08-03T14:15:17;0.75;;;0.55;;
18019;SDS011;9135;48.362;10.878;2022-08-03T14:17:42;0.55;;;0.55;;
18019;SDS011;9135;48.362;10.878;2022-08-03T14:20:08;0.50;;;0.50;;
18019;SDS011;9135;48.362;10.878;2022-08-03T14:22:36;0.30;;;0.30;;
18019;SDS011;9135;48.362;10.878;2022-08-03T14:25:02;0.38;;;0.38;;
18019;SDS011;9135;48.362;10.878;2022-08-03T14:27:28;0.52;;;0.52;;
18019;SDS011;9135;48.362;10.878;2022-08-03T14:29:53;0.77;;;0.77;;
18019;SDS011;9135;48.362;10.878;2022-08-03T14:32:23;0.32;;;0.30;;
18019;SDS011;9135;48.362;10.878;2022-08-03T14:34:49;0.60;;;0.60;;
18019;SDS011;9135;48.362;10.878;2022-08-03T14:37:15;0.35;;;0.35;;
18019;SDS011;9135;48.362;10.878;2022-08-03T14:39:40;0.65;;;0.45;;
18019;SDS011;9135;48.362;10.878;2022-08-03T14:42:06;0.70;;;0.60;;
18019;SDS011;9135;48.362;10.878;2022-08-03T14:44:32;0.40;;;0.40;;
18019;SDS011;9135;48.362;10.878;2022-08-03T14:46:57;0.90;;;0.68;;
18019;SDS011;9135;48.362;10.878;2022-08-03T14:49:23;0.30;;;0.30;;
18019;SDS011;9135;48.362;10.878;2022-08-03T14:51:49;0.30;;;0.30;;
18019;SDS011;9135;48.362;10.878;2022-08-03T14:54:14;0.28;;;0.28;;
18019;SDS011;9135;48.362;10.878;2022-08-03T14:56:40;0.30;;;0.30;;
18019;SDS011;9135;48.362;10.878;2022-08-03T14:59:05;0.45;;;0.40;;
18019;SDS011;9135;48.362;10.878;2022-08-03T15:01:31;0.55;;;0.55;;
18019;SDS011;9135;48.362;10.878;2022-08-03T15:03:56;0.22;;;0.22;;
18019;SDS011;9135;48.362;10.878;2022-08-03T15:06:22;0.35;;;0.35;;
18019;SDS011;9135;48.362;10.878;2022-08-03T15:08:48;0.30;;;0.30;;
18019;SDS011;9135;48.362;10.878;2022-08-03T15:11:14;0.25;;;0.25;;
18019;SDS011;9135;48.362;10.878;2022-08-03T15:13:40;0.30;;;0.30;;
18019;SDS011;9135;48.362;10.878;2022-08-03T15:16:05;0.40;;;0.40;;
18019;SDS011;9135;48.362;10.878;2022-08-03T15:18:32;0.30;;;0.30;;
18019;SDS011;9135;48.362;10.878;2022-08-03T15:20:58;0.55;;;0.50;;
18019;SDS011;9135;48.362;10.878;2022-08-03T15:23:23;0.50;;;0.50;;
18019;SDS011;9135;48.362;10.878;2022-08-03T15:25:50;0.55;;;0.47;;